createdAt,value
2019-01-21T04:02:17.622Z,94.70
2019-01-21T04:05:09.845Z,94.70
2019-01-21T04:08:17.154Z,94.70
2019-01-21T04:11:24.361Z,94.70
2019-01-21T04:14:31.619Z,94.50
2019-01-21T04:17:38.834Z,94.40
2019-01-21T04:20:46.071Z,94.40
2019-01-21T04:23:38.639Z,94.40
2019-01-21T04:26:45.882Z,94.50
2019-01-21T04:29:44.613Z,94.30
2019-01-21T04:32:51.842Z,94.30
2019-01-21T04:35:44.350Z,94.30
2019-01-21T04:38:51.599Z,94.40
2019-01-21T04:41:58.808Z,94.50
2019-01-21T04:45:06.042Z,94.40
2019-01-21T04:48:13.260Z,94.50
2019-01-21T04:51:20.565Z,94.50
2019-01-21T04:54:27.808Z,94.30
2019-01-21T04:57:35.063Z,94.50
2019-01-21T05:00:42.258Z,94.50
2019-01-21T05:03:22.874Z,94.40
2019-01-21T05:06:26.856Z,94.20
2019-01-21T05:09:34.086Z,94.30
2019-01-21T05:12:41.304Z,94.20
2019-01-21T05:15:48.530Z,94.10
2019-01-21T05:18:55.762Z,94.30
2019-01-21T05:22:02.969Z,94.20
2019-01-21T05:25:10.202Z,94.20
2019-01-21T05:28:17.430Z,94.60
2019-01-21T05:31:24.675Z,94.70
2019-01-21T05:34:31.878Z,94.90
2019-01-21T05:37:39.115Z,95.00
2019-01-21T05:40:46.366Z,94.90
2019-01-21T05:43:53.574Z,94.60
2019-01-21T05:46:47.503Z,94.70
2019-01-21T05:49:54.711Z,94.80
2019-01-21T05:53:01.937Z,95.00
2019-01-21T05:56:09.163Z,95.10
2019-01-21T05:59:16.395Z,94.90
2019-01-21T06:02:23.627Z,94.90
2019-01-21T06:05:30.832Z,94.70
2019-01-21T06:08:31.886Z,94.60
2019-01-21T06:11:22.757Z,94.80
2019-01-21T06:14:29.981Z,94.70
2019-01-21T06:17:37.186Z,94.60
2019-01-21T06:20:44.415Z,94.30
2019-01-21T06:23:51.659Z,94.70
2019-01-21T06:26:58.870Z,94.40
2019-01-21T06:30:06.094Z,94.60
2019-01-21T06:33:13.307Z,94.70
2019-01-21T06:36:20.530Z,94.60
2019-01-21T06:39:01.035Z,94.60
2019-01-21T06:41:41.655Z,94.60
2019-01-21T06:44:42.600Z,94.40
2019-01-21T06:47:49.846Z,94.50
2019-01-21T06:50:57.049Z,94.50
2019-01-21T06:54:04.321Z,94.60
2019-01-21T06:57:11.603Z,94.30
2019-01-21T07:00:18.806Z,94.30
2019-01-21T07:03:26.030Z,94.50
2019-01-21T07:06:18.826Z,94.80
2019-01-21T07:09:26.059Z,94.60
2019-01-21T07:12:16.921Z,94.70
2019-01-21T07:15:24.150Z,94.80
2019-01-21T07:18:31.358Z,94.90
2019-01-21T07:21:38.587Z,95.00
2019-01-21T07:24:45.811Z,94.70
2019-01-21T07:27:53.015Z,94.60
2019-01-21T07:31:00.242Z,94.60
2019-01-21T07:34:07.474Z,94.60
2019-01-21T07:37:14.722Z,94.60
2019-01-21T07:40:06.256Z,94.90
2019-01-21T07:42:46.714Z,94.80
2019-01-21T07:45:34.686Z,94.70
2019-01-21T07:48:41.929Z,94.60
2019-01-21T07:51:35.960Z,94.20
2019-01-21T07:54:43.156Z,94.00
2019-01-21T07:57:50.377Z,94.00
2019-01-21T08:00:57.582Z,93.70
2019-01-21T08:04:04.809Z,93.50
2019-01-21T08:07:12.034Z,93.20
2019-01-21T08:10:19.259Z,93.00
2019-01-21T08:13:26.474Z,92.70
2019-01-21T08:16:33.691Z,92.20
2019-01-21T08:19:28.354Z,91.60
2019-01-21T08:22:35.555Z,90.70
2019-01-21T08:25:42.778Z,89.90
2019-01-21T08:28:49.983Z,90.20
2019-01-21T08:31:57.237Z,87.70
2019-01-21T08:35:04.446Z,85.10
2019-01-21T08:38:11.666Z,78.50
2019-01-21T08:41:18.901Z,72.60
2019-01-21T08:44:05.821Z,64.90
2019-01-21T08:47:13.037Z,61.10
2019-01-21T08:50:20.239Z,56.90
2019-01-21T08:53:11.878Z,54.80
2019-01-21T08:56:12.285Z,55.60
2019-01-21T08:59:19.517Z,57.90
2019-01-21T09:02:26.738Z,59.70
2019-01-21T09:05:33.938Z,61.10
2019-01-21T09:08:41.162Z,62.00
2019-01-21T09:11:48.362Z,60.80
2019-01-21T09:14:55.586Z,59.00
2019-01-21T09:18:02.787Z,56.40
2019-01-21T09:21:10.012Z,55.10
2019-01-21T09:24:17.238Z,53.70
2019-01-21T09:27:24.438Z,52.20
2019-01-21T09:30:31.686Z,47.90
2019-01-21T09:33:38.891Z,45.20
2019-01-21T09:36:46.114Z,41.10
2019-01-21T09:39:53.578Z,39.20
2019-01-21T09:43:00.826Z,37.00
2019-01-21T09:45:49.885Z,34.50
2019-01-21T09:48:37.235Z,34.60
2019-01-21T09:51:25.505Z,34.80
2019-01-21T09:54:13.454Z,33.50
2019-01-21T09:57:01.697Z,32.90
2019-01-21T10:00:08.934Z,31.40
2019-01-21T10:02:57.481Z,31.80
2019-01-21T10:05:45.449Z,31.70
2019-01-21T10:08:36.302Z,31.70
2019-01-21T10:11:43.555Z,30.50
2019-01-21T10:14:36.669Z,31.80
2019-01-21T10:17:43.902Z,32.60
2019-01-21T10:20:51.134Z,32.70
2019-01-21T10:23:58.364Z,33.40
2019-01-21T10:27:05.566Z,32.60
2019-01-21T10:30:12.803Z,31.90
2019-01-21T10:33:20.037Z,31.90
2019-01-21T10:36:27.262Z,32.70
2019-01-21T10:39:20.554Z,32.60
2019-01-21T10:42:27.779Z,33.20
2019-01-21T10:45:31.278Z,34.50
2019-01-21T10:48:38.516Z,37.00
2019-01-21T10:51:45.770Z,39.80
2019-01-21T10:54:52.976Z,42.20
2019-01-21T10:58:00.246Z,42.20
2019-01-21T11:01:07.505Z,41.20
2019-01-21T11:04:14.715Z,41.20
2019-01-21T11:07:21.933Z,39.20
2019-01-21T11:10:29.138Z,38.80
2019-01-21T11:13:36.378Z,36.20
2019-01-21T11:16:43.606Z,37.20
2019-01-21T11:19:43.061Z,37.10
2019-01-21T11:22:50.298Z,37.40
2019-01-21T11:25:57.502Z,38.30
2019-01-21T11:29:04.746Z,38.20
2019-01-21T11:32:11.974Z,39.20
2019-01-21T11:35:19.202Z,42.40
2019-01-21T11:38:26.410Z,41.70
2019-01-21T11:41:33.658Z,39.20
2019-01-21T11:44:40.886Z,40.30
2019-01-21T11:47:21.268Z,40.80
2019-01-21T11:50:01.809Z,41.20
2019-01-21T11:52:49.420Z,43.50
2019-01-21T11:55:56.642Z,45.00
2019-01-21T11:59:03.846Z,47.40
2019-01-21T12:02:11.075Z,48.30
2019-01-21T12:05:18.308Z,50.80
2019-01-21T12:08:25.526Z,53.50
2019-01-21T12:11:32.776Z,52.20
2019-01-21T12:14:39.982Z,51.80
2019-01-21T12:17:47.203Z,50.70
2019-01-21T12:20:54.683Z,51.60
2019-01-21T12:24:01.903Z,52.30
2019-01-21T12:27:09.138Z,52.60
2019-01-21T12:30:16.371Z,53.10
2019-01-21T12:33:23.590Z,51.70
2019-01-21T12:36:16.730Z,51.20
2019-01-21T12:39:10.116Z,50.00
2019-01-21T12:42:17.310Z,50.60
2019-01-21T12:45:24.530Z,51.40
2019-01-21T12:48:05.010Z,52.40
2019-01-21T12:50:45.522Z,52.40
2019-01-21T12:53:26.119Z,52.00
2019-01-21T12:56:23.970Z,49.20
2019-01-21T12:59:31.169Z,47.90
2019-01-21T13:02:22.857Z,49.40
2019-01-21T13:05:30.058Z,52.40
2019-01-21T13:08:37.311Z,54.40
2019-01-21T13:11:31.189Z,55.60
2019-01-21T13:14:38.446Z,56.60
2019-01-21T13:17:45.686Z,57.80
2019-01-21T13:20:52.913Z,58.70
2019-01-21T13:24:00.149Z,61.10
2019-01-21T13:27:07.354Z,61.40
2019-01-21T13:30:14.595Z,62.10
2019-01-21T13:33:21.794Z,61.70
2019-01-21T13:36:29.043Z,62.80
2019-01-21T13:39:36.238Z,65.20
2019-01-21T13:42:43.502Z,65.40
2019-01-21T13:45:50.702Z,66.50
2019-01-21T13:48:57.285Z,65.50
2019-01-21T13:52:04.488Z,67.00
2019-01-21T13:55:11.810Z,66.60
2019-01-21T13:58:05.119Z,66.80
2019-01-21T14:01:13.931Z,66.70
2019-01-21T14:04:21.129Z,66.70
2019-01-21T14:07:28.360Z,69.10
2019-01-21T14:10:35.586Z,68.80
2019-01-21T14:13:42.814Z,70.30
2019-01-21T14:16:50.022Z,72.60
2019-01-21T14:19:57.246Z,72.10
2019-01-21T14:23:04.450Z,72.70
2019-01-21T14:25:58.434Z,72.70
2019-01-21T14:29:05.635Z,71.90
2019-01-21T14:32:12.862Z,72.20
2019-01-21T14:35:20.070Z,72.60
2019-01-21T14:38:11.002Z,72.80
2019-01-21T14:41:18.205Z,73.00
2019-01-21T14:44:15.263Z,73.60
2019-01-21T14:47:22.503Z,73.50
2019-01-21T14:50:21.388Z,73.80
2019-01-21T14:53:28.616Z,74.30
2019-01-21T14:56:35.883Z,74.30
2019-01-21T14:59:28.816Z,74.10
2019-01-21T15:02:37.213Z,73.90
2019-01-21T15:05:44.493Z,74.80
2019-01-21T15:08:44.751Z,74.50
2019-01-21T15:11:52.033Z,74.50
2019-01-21T15:14:59.260Z,74.90
2019-01-21T15:18:06.487Z,74.90
2019-01-21T15:20:57.802Z,75.50
2019-01-21T15:24:06.378Z,75.50
2019-01-21T15:26:58.550Z,76.20
2019-01-21T15:29:49.433Z,76.00
2019-01-21T15:32:57.139Z,76.10
2019-01-21T15:36:04.451Z,76.60
2019-01-21T15:39:11.754Z,77.00
2019-01-21T15:42:06.389Z,77.80
2019-01-21T15:45:13.626Z,78.00
2019-01-21T15:48:20.942Z,78.50
2019-01-21T15:54:27.554Z,79.40
2019-01-21T15:57:34.934Z,79.70
2019-01-21T16:00:42.358Z,80.20
2019-01-21T16:03:49.715Z,80.70
2019-01-21T16:06:57.217Z,81.00
2019-01-21T16:10:04.614Z,81.60
2019-01-21T16:13:12.095Z,81.90
2019-01-21T16:16:19.633Z,82.20
2019-01-21T16:19:27.178Z,82.60
2019-01-21T16:22:22.127Z,82.60
2019-01-21T16:25:13.274Z,83.10
2019-01-21T16:28:11.943Z,83.40
2019-01-21T16:31:03.142Z,83.70
2019-01-21T16:34:10.521Z,84.30
2019-01-21T16:37:05.682Z,84.30
2019-01-21T16:40:13.518Z,84.40
2019-01-21T16:43:01.891Z,84.80
2019-01-21T16:45:50.108Z,85.20
2019-01-21T16:48:38.358Z,85.40
2019-01-21T16:51:26.492Z,85.70
2019-01-21T16:54:05.927Z,85.90
2019-01-21T16:56:54.323Z,86.00
2019-01-21T16:59:42.648Z,86.40
2019-01-21T17:02:30.914Z,86.50
2019-01-21T17:05:19.269Z,86.50
2019-01-21T17:08:07.285Z,86.90
2019-01-21T17:10:55.668Z,87.70
2019-01-21T17:13:45.007Z,87.90
2019-01-21T17:16:34.109Z,87.80
2019-01-21T17:19:22.077Z,88.20
2019-01-21T17:22:10.394Z,88.60
2019-01-21T17:24:58.314Z,88.30
2019-01-21T17:27:48.819Z,88.50
2019-01-21T17:30:36.725Z,88.80
2019-01-21T17:33:24.987Z,88.90
2019-01-21T17:36:12.894Z,89.10
2019-01-21T17:39:00.841Z,89.20
2019-01-21T17:41:48.774Z,89.50
2019-01-21T17:44:36.960Z,89.70
2019-01-21T17:47:24.868Z,89.80
2019-01-21T17:50:13.084Z,89.80
2019-01-21T17:52:52.498Z,90.00
2019-01-21T17:55:40.459Z,90.20
2019-01-21T17:58:28.381Z,90.30
2019-01-21T18:01:16.669Z,90.30
2019-01-21T18:04:04.578Z,90.30
2019-01-21T18:06:52.767Z,90.50
2019-01-21T18:09:40.676Z,90.60
2019-01-21T18:12:28.937Z,90.90
2019-01-21T18:15:16.855Z,90.90
2019-01-21T18:18:05.037Z,90.80
2019-01-21T18:20:52.950Z,90.70
2019-01-21T18:23:40.918Z,90.70
2019-01-21T18:26:28.843Z,90.70
2019-01-21T18:29:16.794Z,90.90
2019-01-21T18:32:04.730Z,91.00
2019-01-21T18:34:52.674Z,91.10
2019-01-21T18:37:40.603Z,91.30
2019-01-21T18:40:28.555Z,91.20
2019-01-21T18:43:16.480Z,91.40
2019-01-21T18:46:04.434Z,91.60
2019-01-21T18:48:52.358Z,91.70
2019-01-21T18:54:24.981Z,91.70
2019-01-21T18:57:12.950Z,91.80
2019-01-21T19:00:00.890Z,91.80
2019-01-21T19:02:48.894Z,91.70
2019-01-21T19:05:36.821Z,92.00
2019-01-21T19:08:24.774Z,92.00
2019-01-21T19:11:12.701Z,91.80
2019-01-21T19:14:00.846Z,91.70
2019-01-21T19:16:48.851Z,91.90
2019-01-21T19:19:36.805Z,91.90
2019-01-21T19:22:24.762Z,91.80
2019-01-21T19:25:13.071Z,91.70
2019-01-21T19:28:01.286Z,91.70
2019-01-21T19:30:49.258Z,91.80
2019-01-21T19:33:37.207Z,92.00
2019-01-21T19:36:25.174Z,92.10
2019-01-21T19:39:13.101Z,92.30
2019-01-21T19:42:01.335Z,92.20
2019-01-21T19:44:49.662Z,92.20
2019-01-21T19:47:37.704Z,92.10
2019-01-21T19:50:25.818Z,92.30
2019-01-21T19:56:19.984Z,92.50
2019-01-21T19:59:08.178Z,92.50
2019-01-21T20:01:56.126Z,92.60
2019-01-21T20:04:44.049Z,92.50
2019-01-21T20:07:32.237Z,92.80
2019-01-21T20:10:20.168Z,92.60
2019-01-21T20:13:08.173Z,92.70
2019-01-21T20:15:56.397Z,92.80
2019-01-21T20:18:45.129Z,92.90
2019-01-21T20:21:33.147Z,92.80
2019-01-21T20:24:21.466Z,92.70
2019-01-21T20:27:09.694Z,92.80
2019-01-21T20:29:57.773Z,92.80
2019-01-21T20:32:45.707Z,93.10
2019-01-21T20:35:33.977Z,92.90
2019-01-21T20:38:21.901Z,92.70
2019-01-21T20:44:03.486Z,93.00
2019-01-21T20:46:51.447Z,93.10
2019-01-21T20:49:39.399Z,93.10
2019-01-21T20:52:27.674Z,93.00
2019-01-21T20:55:15.869Z,92.90
2019-01-21T20:57:54.657Z,92.90
2019-01-21T21:00:42.582Z,93.00
2019-01-21T21:03:30.845Z,93.10
2019-01-21T21:06:18.804Z,93.00
2019-01-21T21:09:08.248Z,93.20
2019-01-21T21:11:56.169Z,93.30
2019-01-21T21:14:44.691Z,93.30
2019-01-21T21:17:32.601Z,93.50
2019-01-21T21:20:20.566Z,93.30
2019-01-21T21:23:08.489Z,93.50
2019-01-21T21:25:56.717Z,93.50
2019-01-21T21:28:44.970Z,93.40
2019-01-21T21:31:32.990Z,93.30
2019-01-21T21:34:21.242Z,93.60
2019-01-21T21:37:09.262Z,93.50
2019-01-21T21:39:57.715Z,93.40
2019-01-21T21:42:45.756Z,93.50
2019-01-21T21:45:33.682Z,93.80
2019-01-21T21:48:21.962Z,93.90
2019-01-21T21:51:10.050Z,93.90
2019-01-21T21:53:58.009Z,93.90
2019-01-21T21:56:45.938Z,94.10
2019-01-21T21:59:28.754Z,94.10
2019-01-21T22:02:09.226Z,93.80
2019-01-21T22:04:50.049Z,93.60
2019-01-21T22:07:29.106Z,93.50
2019-01-21T22:10:19.664Z,94.10
2019-01-21T22:13:07.799Z,94.50
2019-01-21T22:15:55.769Z,94.90
2019-01-21T22:18:43.697Z,94.60
2019-01-21T22:21:31.917Z,94.40
2019-01-21T22:24:19.846Z,94.10
2019-01-21T22:27:07.811Z,94.00
2019-01-21T22:29:55.734Z,94.00
2019-01-21T22:32:43.691Z,94.00
2019-01-21T22:35:31.623Z,94.00
2019-01-21T22:38:19.565Z,94.00
2019-01-21T22:41:07.494Z,94.00
2019-01-21T22:43:55.706Z,93.90
2019-01-21T22:46:43.640Z,93.90
2019-01-21T22:49:31.581Z,94.00
2019-01-21T22:52:19.512Z,93.90
2019-01-21T22:55:09.763Z,93.90
2019-01-21T22:57:57.766Z,93.90
